Погода Затолокинона неделю

Пензенская область, Россия

21 - 27 мая
  • 21мая
    Сегодня
    +11°
    +24°
    Ясно и безоблачно
    ВремяПогодаТемператураВлажностьДавлениеВетер, м/сВероятность осадков
    00:00Ясно и безоблачно+13°C63 %750 мм0.3 м/с2 %
    03:00Ясно и безоблачно+11°C70 %750 мм0.9 м/с2 %
    06:00Ясно и безоблачно+13°C64 %751 мм1.1 м/с2 %
    09:00Ясно и безоблачно+20°C44 %751 мм1.9 м/с2 %
    12:00Ясно и безоблачно+23°C30 %751 мм2.2 м/с2 %
    15:00Ясно и безоблачно+24°C28 %751 мм1.7 м/с2 %
    18:00Ясно и безоблачно+23°C33 %750 мм2.0 м/с2 %
    21:00Ясно и безоблачно+16°C62 %751 мм0.9 м/с2 %
  • 22мая
    Среда
    +11°
    +24°
    Практически безоблачно
    ВремяПогодаТемператураВлажностьДавлениеВетер, м/сВероятность осадков
    00:00Небольшая облачность+15°C67 %751 мм0.6 м/с2 %
    03:00Ясно и безоблачно+13°C73 %751 мм0.8 м/с2 %
    06:00Ясно и безоблачно+15°C75 %751 мм0.7 м/с2 %
    09:00Практически безоблачно+21°C48 %752 мм1.4 м/с2 %
    12:00Практически безоблачно+24°C35 %751 мм1.6 м/с12 %
    15:00Практически безоблачно+24°C39 %751 мм1.4 м/с22 %
    18:00Облачно с прояснениями+22°C51 %751 мм1.8 м/с29 %
    21:00Облачно с прояснениями+16°C79 %751 мм0.9 м/с3 %
  • 23мая
    Четверг
    +5°
    +19°
    Ясно и безоблачно
    ВремяПогодаТемператураВлажностьДавлениеВетер, м/сВероятность осадков
    00:00Ясно и безоблачно+14°C92 %752 мм1.1 м/с2 %
    03:00Практически безоблачно+13°C65 %753 мм2.2 м/с2 %
    06:00Небольшая облачность+12°C48 %754 мм2.8 м/с7 %
    09:00Практически безоблачно+15°C40 %755 мм3.6 м/с5 %
    12:00Ясно и безоблачно+17°C34 %756 мм3.5 м/с2 %
    15:00Ясно и безоблачно+17°C30 %756 мм3.2 м/с2 %
    18:00Ясно и безоблачно+17°C32 %757 мм3.0 м/с2 %
    21:00Ясно и безоблачно+11°C39 %758 мм2.0 м/с2 %
  • 24мая
    Пятница
    +6°
    +17°
    Ясно и безоблачно
    ВремяПогодаТемператураВлажностьДавлениеВетер, м/сВероятность осадков
    00:00Ясно и безоблачно+8°C47 %759 мм1.8 м/с2 %
    03:00Ясно и безоблачно+6°C58 %760 мм1.4 м/с2 %
    06:00Ясно и безоблачно+7°C60 %761 мм1.7 м/с2 %
    09:00Ясно и безоблачно+12°C32 %761 мм2.7 м/с2 %
    12:00Ясно и безоблачно+15°C31 %761 мм2.6 м/с2 %
    15:00Ясно и безоблачно+17°C32 %761 мм2.4 м/с2 %
    18:00Ясно и безоблачно+18°C35 %761 мм2.2 м/с2 %
    21:00Ясно и безоблачно+10°C55 %761 мм1.0 м/с2 %
Мы используем cookies
Соглашаюсь